createdAt,value
2022-07-25T00:02:51.053Z,62.64
2022-07-25T00:08:23.003Z,64.17
2022-07-25T00:13:54.333Z,64.14
2022-07-25T00:19:25.859Z,65.41
2022-07-25T00:24:57.533Z,66.10
2022-07-25T00:30:29.340Z,63.57
2022-07-25T00:36:01.473Z,64.50
2022-07-25T00:41:33.297Z,66.20
2022-07-25T00:47:05.437Z,66.35
2022-07-25T00:52:36.921Z,67.82
2022-07-25T00:58:08.568Z,68.46
2022-07-25T03:04:20.638Z,76.18
2022-07-25T03:09:52.395Z,75.41
2022-07-25T03:15:24.248Z,76.14
2022-07-25T03:20:56.127Z,76.35
2022-07-25T03:26:28.012Z,74.92
2022-07-25T03:31:59.801Z,75.52
2022-07-25T03:37:31.561Z,76.52
2022-07-25T03:43:03.366Z,75.26
2022-07-25T03:48:35.363Z,76.28
2022-07-25T03:54:07.927Z,75.16
2022-07-25T03:59:39.497Z,76.86
2022-07-25T04:05:11.565Z,75.16
2022-07-25T04:10:43.046Z,75.86
2022-07-25T04:16:15.098Z,75.08
2022-07-25T04:21:46.803Z,73.49
2022-07-25T04:27:18.514Z,72.01
2022-07-25T04:32:50.325Z,70.68
2022-07-25T04:38:21.956Z,69.60
2022-07-25T04:43:53.864Z,67.81
2022-07-25T04:49:25.442Z,65.93
2022-07-25T04:54:57.471Z,64.71
2022-07-25T05:00:29.579Z,64.60
2022-07-25T05:06:01.399Z,60.72
2022-07-25T05:11:33.100Z,59.21
2022-07-25T05:17:04.821Z,60.63
2022-07-25T05:22:36.715Z,61.62
2022-07-25T05:28:08.436Z,62.28
2022-07-25T05:33:40.139Z,63.11
2022-07-25T05:39:11.991Z,64.06
2022-07-25T05:44:43.637Z,65.44
2022-07-25T05:50:15.562Z,65.46
2022-07-25T05:55:47.389Z,63.38
2022-07-25T06:01:19.148Z,60.15
2022-07-25T06:06:50.878Z,56.25
2022-07-25T06:12:24.252Z,52.06
2022-07-25T06:17:54.217Z,51.76
2022-07-25T06:23:27.774Z,49.31
2022-07-25T06:28:57.680Z,46.14
2022-07-25T06:34:29.101Z,44.88
2022-07-25T06:40:01.066Z,47.07
2022-07-25T06:45:32.721Z,41.40
2022-07-25T06:51:04.518Z,41.89
2022-07-25T06:53:15.874Z,40.29
2022-07-25T07:04:16.500Z,38.97
2022-07-25T07:09:47.997Z,37.17
2022-07-25T07:15:20.235Z,37.77
2022-07-25T07:20:51.804Z,36.79
2022-07-25T07:26:23.603Z,36.61
2022-07-25T07:31:57.618Z,35.65
2022-07-25T07:37:33.677Z,35.18
2022-07-25T07:43:00.895Z,34.37
2022-07-25T07:48:33.015Z,35.18
2022-07-25T07:54:04.458Z,34.14
2022-07-25T07:59:36.438Z,33.73
2022-07-25T08:10:37.300Z,33.37
2022-07-25T08:16:09.164Z,33.53
2022-07-25T08:23:59.936Z,32.71
2022-07-25T08:35:01.333Z,33.24
2022-07-25T08:40:33.178Z,33.25
2022-07-25T08:46:04.987Z,32.45
2022-07-25T08:51:36.763Z,32.06
2022-07-25T08:57:08.501Z,32.36
2022-07-25T09:02:40.458Z,32.80
2022-07-25T09:13:41.092Z,31.56
2022-07-25T09:19:13.591Z,31.27
2022-07-25T09:24:45.360Z,31.75
2022-07-25T09:30:17.145Z,32.15
2022-07-25T09:35:48.892Z,32.62
2022-07-25T09:41:20.380Z,32.16
2022-07-25T09:46:51.935Z,32.30
2022-07-25T09:52:23.485Z,32.47
2022-07-25T09:58:17.411Z,32.10
2022-07-25T10:03:49.456Z,32.88
2022-07-25T10:09:21.216Z,33.64
2022-07-25T10:14:52.682Z,33.96
2022-07-25T10:20:24.106Z,34.13
2022-07-25T10:25:55.836Z,34.01
2022-07-25T10:31:27.608Z,32.78
2022-07-25T10:36:59.148Z,32.39
2022-07-25T10:42:30.880Z,32.19
2022-07-25T10:48:02.803Z,32.14
2022-07-25T10:53:34.396Z,32.32
2022-07-25T10:59:06.364Z,32.29
2022-07-25T11:04:37.990Z,32.12
2022-07-25T11:10:09.697Z,30.74
2022-07-25T11:15:41.635Z,30.43
2022-07-25T11:21:13.348Z,29.51
2022-07-25T11:26:45.185Z,28.55
2022-07-25T11:32:17.191Z,28.72
2022-07-25T11:37:49.005Z,29.14
2022-07-25T11:43:20.522Z,28.82
2022-07-25T11:48:52.414Z,28.07
2022-07-25T11:54:24.238Z,28.11
2022-07-25T11:59:56.023Z,27.04
2022-07-25T12:05:27.721Z,27.44
2022-07-25T12:10:59.552Z,27.92
2022-07-25T12:16:31.320Z,28.06
2022-07-25T12:22:03.183Z,28.42
2022-07-25T12:27:34.967Z,28.98
2022-07-25T12:33:06.827Z,28.71
2022-07-25T12:38:38.648Z,28.67
2022-07-25T12:44:10.147Z,28.82
2022-07-25T12:49:41.814Z,28.59
2022-07-25T12:55:13.511Z,29.50
2022-07-25T13:00:45.208Z,29.89
2022-07-25T13:06:17.303Z,29.80
2022-07-25T13:11:48.896Z,29.73
2022-07-25T13:17:26.514Z,29.77
2022-07-25T13:22:52.215Z,29.63
2022-07-25T13:28:23.926Z,29.40
2022-07-25T13:33:55.813Z,28.77
2022-07-25T13:39:27.231Z,28.84
2022-07-25T13:44:58.837Z,28.98
2022-07-25T13:50:30.515Z,27.67
2022-07-25T13:56:02.008Z,28.26
2022-07-25T14:01:33.923Z,28.75
2022-07-25T14:07:05.112Z,29.43
2022-07-25T14:18:08.297Z,27.81
2022-07-25T14:23:40.120Z,28.07
2022-07-25T14:29:11.757Z,28.45
2022-07-25T14:34:43.330Z,28.28
2022-07-25T14:40:15.113Z,28.63
2022-07-25T14:45:46.800Z,28.93
2022-07-25T14:51:18.813Z,29.28
2022-07-25T14:56:50.360Z,29.49
2022-07-25T15:02:21.698Z,29.80
2022-07-25T15:07:53.637Z,28.03
2022-07-25T15:13:31.435Z,28.05
2022-07-25T15:24:29.518Z,28.92
2022-07-25T15:35:30.882Z,26.61
2022-07-25T15:41:02.435Z,27.07
2022-07-25T15:46:34.131Z,26.45
2022-07-25T15:52:05.522Z,26.86
2022-07-25T15:57:37.056Z,27.09
2022-07-25T16:03:14.360Z,27.69
2022-07-25T16:08:46.140Z,28.11
2022-07-25T16:14:17.850Z,28.10
2022-07-25T16:19:49.386Z,28.78
2022-07-25T16:25:20.961Z,28.28
2022-07-25T16:30:52.833Z,29.19
2022-07-25T16:41:56.525Z,29.88
2022-07-25T16:47:28.382Z,30.03
2022-07-25T16:52:59.873Z,30.42
2022-07-25T16:58:31.612Z,30.67
2022-07-25T17:04:03.440Z,31.05
2022-07-25T17:09:35.363Z,31.69
2022-07-25T17:15:07.499Z,31.58
2022-07-25T17:20:39.224Z,31.89
2022-07-25T17:26:10.996Z,32.20
2022-07-25T17:31:42.512Z,32.29
2022-07-25T17:37:14.299Z,32.84
2022-07-25T17:42:47.988Z,33.30
2022-07-25T17:53:49.603Z,32.59
2022-07-25T18:10:22.807Z,35.58
2022-07-25T18:15:54.918Z,36.57
2022-07-25T18:21:26.330Z,37.51
2022-07-25T18:26:58.131Z,38.61
2022-07-25T18:32:29.637Z,38.93
2022-07-25T18:49:00.703Z,41.23
2022-07-25T18:54:32.469Z,41.93
2022-07-25T19:00:04.103Z,42.50
2022-07-25T19:05:36.065Z,43.53
2022-07-25T19:11:07.349Z,43.81
2022-07-25T19:16:39.214Z,45.22
2022-07-25T19:27:40.345Z,45.44
2022-07-25T19:33:11.937Z,46.53
2022-07-25T19:38:43.924Z,46.75
2022-07-25T19:49:45.193Z,47.25
2022-07-25T19:55:17.259Z,45.53
2022-07-25T20:00:49.297Z,45.39
2022-07-25T20:14:14.781Z,47.50
2022-07-25T20:19:47.702Z,49.37
2022-07-25T20:25:19.889Z,48.44
2022-07-25T20:30:52.452Z,52.28
2022-07-25T20:36:24.487Z,62.59
2022-07-25T20:41:56.517Z,71.00
2022-07-25T20:47:28.520Z,75.07
2022-07-25T20:53:00.330Z,77.56
2022-07-25T21:04:07.048Z,78.46
2022-07-25T21:09:33.801Z,76.41
2022-07-25T21:17:27.186Z,79.70
2022-07-25T21:22:59.473Z,81.06
2022-07-25T21:28:31.212Z,82.72
2022-07-25T21:34:03.138Z,77.25
2022-07-25T21:39:35.051Z,77.57
2022-07-25T21:45:06.561Z,80.81
2022-07-25T21:50:42.172Z,80.56
2022-07-25T21:56:10.169Z,79.29
2022-07-25T22:01:42.107Z,81.29
2022-07-25T22:07:13.736Z,82.72
2022-07-25T22:12:45.978Z,84.49
2022-07-25T22:18:17.826Z,83.31
2022-07-25T22:23:49.641Z,84.88
2022-07-25T22:29:21.258Z,85.14
2022-07-25T22:34:53.027Z,84.83
2022-07-25T22:40:24.964Z,83.72
2022-07-25T22:45:57.047Z,85.44
2022-07-25T22:51:28.482Z,86.38
2022-07-25T22:57:00.691Z,87.10
2022-07-25T23:02:32.320Z,85.24
2022-07-25T23:13:33.523Z,86.91
2022-07-25T23:24:37.770Z,85.55
2022-07-25T23:30:06.874Z,88.89
2022-07-25T23:35:39.116Z,86.38
2022-07-25T23:41:10.758Z,87.14
2022-07-25T23:52:12.164Z,87.17
2022-07-25T23:57:43.773Z,88.77
